sensor_id;sensor_type;location;lat;lon;timestamp;P1;durP1;ratioP1;P2;durP2;ratioP2
20731;SDS011;10527;52.124;5.196;2024-03-17T00:00:24;5.17;;;2.37;;
20731;SDS011;10527;52.124;5.196;2024-03-17T00:02:51;6.17;;;2.60;;
20731;SDS011;10527;52.124;5.196;2024-03-17T00:05:18;6.67;;;2.77;;
20731;SDS011;10527;52.124;5.196;2024-03-17T00:07:44;7.83;;;3.07;;
20731;SDS011;10527;52.124;5.196;2024-03-17T00:10:11;6.43;;;3.07;;
20731;SDS011;10527;52.124;5.196;2024-03-17T00:12:38;6.57;;;3.00;;
20731;SDS011;10527;52.124;5.196;2024-03-17T00:15:04;11.47;;;3.40;;
20731;SDS011;10527;52.124;5.196;2024-03-17T00:17:35;5.03;;;2.60;;
20731;SDS011;10527;52.124;5.196;2024-03-17T00:20:02;6.10;;;2.93;;
20731;SDS011;10527;52.124;5.196;2024-03-17T00:22:34;7.10;;;2.83;;
20731;SDS011;10527;52.124;5.196;2024-03-17T00:25:06;7.20;;;3.07;;
20731;SDS011;10527;52.124;5.196;2024-03-17T00:27:33;8.67;;;2.90;;
20731;SDS011;10527;52.124;5.196;2024-03-17T00:30:05;4.83;;;2.63;;
20731;SDS011;10527;52.124;5.196;2024-03-17T00:32:41;4.67;;;2.73;;
20731;SDS011;10527;52.124;5.196;2024-03-17T00:35:08;4.87;;;2.60;;
20731;SDS011;10527;52.124;5.196;2024-03-17T00:37:36;7.47;;;2.73;;
20731;SDS011;10527;52.124;5.196;2024-03-17T00:40:03;6.77;;;2.40;;
20731;SDS011;10527;52.124;5.196;2024-03-17T00:42:31;7.50;;;2.27;;
20731;SDS011;10527;52.124;5.196;2024-03-17T00:44:58;6.17;;;3.20;;
20731;SDS011;10527;52.124;5.196;2024-03-17T00:47:30;7.23;;;2.70;;
20731;SDS011;10527;52.124;5.196;2024-03-17T00:49:57;7.47;;;3.27;;
20731;SDS011;10527;52.124;5.196;2024-03-17T00:52:25;7.43;;;3.33;;
20731;SDS011;10527;52.124;5.196;2024-03-17T00:54:52;5.80;;;2.50;;
20731;SDS011;10527;52.124;5.196;2024-03-17T00:57:19;5.77;;;2.90;;
20731;SDS011;10527;52.124;5.196;2024-03-17T00:59:46;8.03;;;2.93;;
20731;SDS011;10527;52.124;5.196;2024-03-17T01:02:12;5.10;;;2.63;;
20731;SDS011;10527;52.124;5.196;2024-03-17T01:04:42;5.83;;;3.13;;
20731;SDS011;10527;52.124;5.196;2024-03-17T01:07:09;7.53;;;2.80;;
20731;SDS011;10527;52.124;5.196;2024-03-17T01:09:36;7.67;;;2.83;;
20731;SDS011;10527;52.124;5.196;2024-03-17T01:12:03;6.07;;;2.63;;
20731;SDS011;10527;52.124;5.196;2024-03-17T01:14:31;8.40;;;3.07;;
20731;SDS011;10527;52.124;5.196;2024-03-17T01:16:59;6.77;;;3.77;;
20731;SDS011;10527;52.124;5.196;2024-03-17T01:19:30;6.37;;;2.80;;
20731;SDS011;10527;52.124;5.196;2024-03-17T01:21:57;5.67;;;3.20;;
20731;SDS011;10527;52.124;5.196;2024-03-17T01:24:27;6.77;;;3.27;;
20731;SDS011;10527;52.124;5.196;2024-03-17T01:26:59;7.73;;;3.43;;
20731;SDS011;10527;52.124;5.196;2024-03-17T01:29:26;8.57;;;3.27;;
20731;SDS011;10527;52.124;5.196;2024-03-17T01:31:53;4.10;;;3.17;;
20731;SDS011;10527;52.124;5.196;2024-03-17T01:34:21;8.43;;;3.27;;
20731;SDS011;10527;52.124;5.196;2024-03-17T01:36:47;7.10;;;3.60;;
20731;SDS011;10527;52.124;5.196;2024-03-17T01:39:14;7.03;;;3.37;;
20731;SDS011;10527;52.124;5.196;2024-03-17T01:41:42;7.53;;;3.70;;
20731;SDS011;10527;52.124;5.196;2024-03-17T01:44:11;7.10;;;3.27;;
20731;SDS011;10527;52.124;5.196;2024-03-17T01:46:48;10.30;;;4.27;;
20731;SDS011;10527;52.124;5.196;2024-03-17T01:49:18;6.33;;;3.40;;
20731;SDS011;10527;52.124;5.196;2024-03-17T01:51:45;7.57;;;4.00;;
20731;SDS011;10527;52.124;5.196;2024-03-17T01:54:14;11.27;;;3.70;;
20731;SDS011;10527;52.124;5.196;2024-03-17T01:56:42;7.43;;;3.70;;
20731;SDS011;10527;52.124;5.196;2024-03-17T01:59:09;8.47;;;3.87;;
20731;SDS011;10527;52.124;5.196;2024-03-17T02:01:36;5.47;;;3.47;;
20731;SDS011;10527;52.124;5.196;2024-03-17T02:04:04;6.33;;;3.90;;
20731;SDS011;10527;52.124;5.196;2024-03-17T02:06:31;14.60;;;5.03;;
20731;SDS011;10527;52.124;5.196;2024-03-17T02:08:57;7.63;;;4.37;;
20731;SDS011;10527;52.124;5.196;2024-03-17T02:13:53;8.30;;;3.90;;
20731;SDS011;10527;52.124;5.196;2024-03-17T02:16:21;6.77;;;4.10;;
20731;SDS011;10527;52.124;5.196;2024-03-17T02:18:48;6.83;;;4.07;;
20731;SDS011;10527;52.124;5.196;2024-03-17T02:21:19;5.17;;;3.40;;
20731;SDS011;10527;52.124;5.196;2024-03-17T02:23:48;6.70;;;4.47;;
20731;SDS011;10527;52.124;5.196;2024-03-17T02:26:14;7.23;;;4.07;;
20731;SDS011;10527;52.124;5.196;2024-03-17T02:28:41;7.83;;;4.07;;
20731;SDS011;10527;52.124;5.196;2024-03-17T02:31:10;5.47;;;3.70;;
20731;SDS011;10527;52.124;5.196;2024-03-17T02:33:38;7.13;;;3.97;;
20731;SDS011;10527;52.124;5.196;2024-03-17T02:36:05;6.17;;;3.87;;
20731;SDS011;10527;52.124;5.196;2024-03-17T02:38:40;7.40;;;3.70;;
20731;SDS011;10527;52.124;5.196;2024-03-17T02:41:26;8.40;;;4.33;;
20731;SDS011;10527;52.124;5.196;2024-03-17T02:43:54;7.80;;;4.57;;
20731;SDS011;10527;52.124;5.196;2024-03-17T02:46:21;6.23;;;4.53;;
20731;SDS011;10527;52.124;5.196;2024-03-17T02:48:52;6.03;;;3.70;;
20731;SDS011;10527;52.124;5.196;2024-03-17T02:51:19;7.47;;;3.90;;
20731;SDS011;10527;52.124;5.196;2024-03-17T02:53:48;9.97;;;4.07;;
20731;SDS011;10527;52.124;5.196;2024-03-17T02:56:15;9.37;;;4.17;;
20731;SDS011;10527;52.124;5.196;2024-03-17T02:58:43;7.50;;;3.70;;
20731;SDS011;10527;52.124;5.196;2024-03-17T03:01:14;7.80;;;3.67;;
20731;SDS011;10527;52.124;5.196;2024-03-17T03:03:42;8.13;;;4.37;;
20731;SDS011;10527;52.124;5.196;2024-03-17T03:06:08;7.57;;;4.33;;
20731;SDS011;10527;52.124;5.196;2024-03-17T03:08:37;5.90;;;3.77;;
20731;SDS011;10527;52.124;5.196;2024-03-17T03:11:10;6.60;;;3.87;;
20731;SDS011;10527;52.124;5.196;2024-03-17T03:13:37;5.73;;;4.37;;
20731;SDS011;10527;52.124;5.196;2024-03-17T03:16:09;7.07;;;4.50;;
20731;SDS011;10527;52.124;5.196;2024-03-17T03:18:37;5.90;;;4.30;;
20731;SDS011;10527;52.124;5.196;2024-03-17T03:21:04;9.40;;;4.30;;
20731;SDS011;10527;52.124;5.196;2024-03-17T03:23:31;5.73;;;4.43;;
20731;SDS011;10527;52.124;5.196;2024-03-17T03:25:58;7.00;;;4.23;;
20731;SDS011;10527;52.124;5.196;2024-03-17T03:28:29;6.20;;;4.53;;
20731;SDS011;10527;52.124;5.196;2024-03-17T03:30:57;8.13;;;4.80;;
20731;SDS011;10527;52.124;5.196;2024-03-17T03:33:23;10.10;;;4.57;;
20731;SDS011;10527;52.124;5.196;2024-03-17T03:35:50;6.33;;;4.00;;
20731;SDS011;10527;52.124;5.196;2024-03-17T03:38:17;5.80;;;4.63;;
20731;SDS011;10527;52.124;5.196;2024-03-17T03:40:47;7.90;;;5.07;;
20731;SDS011;10527;52.124;5.196;2024-03-17T03:43:14;7.63;;;5.07;;
20731;SDS011;10527;52.124;5.196;2024-03-17T03:45:41;9.07;;;5.43;;
20731;SDS011;10527;52.124;5.196;2024-03-17T03:48:08;7.73;;;4.40;;
20731;SDS011;10527;52.124;5.196;2024-03-17T03:50:35;7.77;;;5.37;;
20731;SDS011;10527;52.124;5.196;2024-03-17T03:53:03;8.87;;;5.20;;
20731;SDS011;10527;52.124;5.196;2024-03-17T03:55:31;7.33;;;4.83;;
20731;SDS011;10527;52.124;5.196;2024-03-17T03:57:57;6.70;;;4.67;;
20731;SDS011;10527;52.124;5.196;2024-03-17T04:00:24;9.47;;;4.97;;
20731;SDS011;10527;52.124;5.196;2024-03-17T04:02:55;6.87;;;4.97;;
20731;SDS011;10527;52.124;5.196;2024-03-17T04:05:22;8.17;;;5.73;;
20731;SDS011;10527;52.124;5.196;2024-03-17T04:07:48;8.57;;;4.77;;
20731;SDS011;10527;52.124;5.196;2024-03-17T04:10:15;6.67;;;5.17;;
20731;SDS011;10527;52.124;5.196;2024-03-17T04:12:44;6.60;;;4.87;;
20731;SDS011;10527;52.124;5.196;2024-03-17T04:15:10;7.87;;;5.20;;
20731;SDS011;10527;52.124;5.196;2024-03-17T04:17:37;8.00;;;4.53;;
20731;SDS011;10527;52.124;5.196;2024-03-17T04:20:04;7.63;;;5.63;;
20731;SDS011;10527;52.124;5.196;2024-03-17T04:22:35;6.03;;;4.57;;
20731;SDS011;10527;52.124;5.196;2024-03-17T04:25:02;7.30;;;4.70;;
20731;SDS011;10527;52.124;5.196;2024-03-17T04:27:29;6.33;;;4.80;;
20731;SDS011;10527;52.124;5.196;2024-03-17T04:29:57;7.67;;;4.87;;
20731;SDS011;10527;52.124;5.196;2024-03-17T04:32:24;8.60;;;5.50;;
20731;SDS011;10527;52.124;5.196;2024-03-17T04:34:54;6.83;;;4.73;;
20731;SDS011;10527;52.124;5.196;2024-03-17T04:37:20;9.03;;;5.03;;
20731;SDS011;10527;52.124;5.196;2024-03-17T04:39:47;8.03;;;4.80;;
20731;SDS011;10527;52.124;5.196;2024-03-17T04:42:15;7.67;;;4.83;;
20731;SDS011;10527;52.124;5.196;2024-03-17T04:44:46;7.57;;;5.23;;
20731;SDS011;10527;52.124;5.196;2024-03-17T04:47:12;9.83;;;5.10;;
20731;SDS011;10527;52.124;5.196;2024-03-17T04:49:40;5.63;;;4.40;;
20731;SDS011;10527;52.124;5.196;2024-03-17T04:52:10;7.90;;;4.90;;
20731;SDS011;10527;52.124;5.196;2024-03-17T04:54:38;5.13;;;4.20;;
20731;SDS011;10527;52.124;5.196;2024-03-17T04:57:06;6.80;;;4.50;;
20731;SDS011;10527;52.124;5.196;2024-03-17T04:59:34;7.37;;;5.17;;
20731;SDS011;10527;52.124;5.196;2024-03-17T05:02:01;6.43;;;5.47;;
20731;SDS011;10527;52.124;5.196;2024-03-17T05:04:29;7.70;;;4.60;;
20731;SDS011;10527;52.124;5.196;2024-03-17T05:06:55;6.90;;;5.20;;
20731;SDS011;10527;52.124;5.196;2024-03-17T05:09:22;9.67;;;5.63;;
20731;SDS011;10527;52.124;5.196;2024-03-17T05:11:51;6.93;;;5.13;;
20731;SDS011;10527;52.124;5.196;2024-03-17T05:14:18;7.77;;;5.20;;
20731;SDS011;10527;52.124;5.196;2024-03-17T05:16:47;7.93;;;4.90;;
20731;SDS011;10527;52.124;5.196;2024-03-17T05:19:17;6.67;;;5.13;;
20731;SDS011;10527;52.124;5.196;2024-03-17T05:21:44;7.03;;;5.37;;
20731;SDS011;10527;52.124;5.196;2024-03-17T05:24:11;8.20;;;5.40;;
20731;SDS011;10527;52.124;5.196;2024-03-17T05:26:38;5.80;;;4.80;;
20731;SDS011;10527;52.124;5.196;2024-03-17T05:29:04;6.57;;;5.07;;
20731;SDS011;10527;52.124;5.196;2024-03-17T05:31:31;8.40;;;5.77;;
20731;SDS011;10527;52.124;5.196;2024-03-17T05:33:57;7.53;;;5.33;;
20731;SDS011;10527;52.124;5.196;2024-03-17T05:36:23;7.83;;;5.70;;
20731;SDS011;10527;52.124;5.196;2024-03-17T05:38:50;6.27;;;4.67;;
20731;SDS011;10527;52.124;5.196;2024-03-17T05:41:16;8.03;;;4.87;;
20731;SDS011;10527;52.124;5.196;2024-03-17T05:43:43;6.87;;;4.63;;
20731;SDS011;10527;52.124;5.196;2024-03-17T05:46:12;6.80;;;4.83;;
20731;SDS011;10527;52.124;5.196;2024-03-17T05:48:39;7.63;;;5.30;;
20731;SDS011;10527;52.124;5.196;2024-03-17T05:51:07;9.53;;;5.70;;
20731;SDS011;10527;52.124;5.196;2024-03-17T05:53:40;7.27;;;5.70;;
20731;SDS011;10527;52.124;5.196;2024-03-17T05:56:09;7.20;;;5.23;;
20731;SDS011;10527;52.124;5.196;2024-03-17T05:58:41;7.43;;;5.17;;
20731;SDS011;10527;52.124;5.196;2024-03-17T06:01:08;8.17;;;5.20;;
20731;SDS011;10527;52.124;5.196;2024-03-17T06:03:35;8.47;;;4.47;;
20731;SDS011;10527;52.124;5.196;2024-03-17T06:06:02;7.03;;;5.00;;
20731;SDS011;10527;52.124;5.196;2024-03-17T06:08:29;6.87;;;4.53;;
20731;SDS011;10527;52.124;5.196;2024-03-17T06:10:56;7.53;;;5.40;;
20731;SDS011;10527;52.124;5.196;2024-03-17T06:13:23;7.93;;;5.37;;
20731;SDS011;10527;52.124;5.196;2024-03-17T06:15:50;7.30;;;5.40;;
20731;SDS011;10527;52.124;5.196;2024-03-17T06:18:16;6.63;;;5.23;;
20731;SDS011;10527;52.124;5.196;2024-03-17T06:20:44;6.53;;;5.27;;
20731;SDS011;10527;52.124;5.196;2024-03-17T06:23:12;7.47;;;5.67;;
20731;SDS011;10527;52.124;5.196;2024-03-17T06:25:44;7.73;;;5.77;;
20731;SDS011;10527;52.124;5.196;2024-03-17T06:28:13;8.30;;;4.97;;
20731;SDS011;10527;52.124;5.196;2024-03-17T06:30:41;6.83;;;5.17;;
20731;SDS011;10527;52.124;5.196;2024-03-17T06:33:13;6.43;;;4.33;;
20731;SDS011;10527;52.124;5.196;2024-03-17T06:35:41;6.63;;;5.13;;
20731;SDS011;10527;52.124;5.196;2024-03-17T06:38:08;7.80;;;5.70;;
20731;SDS011;10527;52.124;5.196;2024-03-17T06:40:38;5.80;;;5.03;;
20731;SDS011;10527;52.124;5.196;2024-03-17T06:43:05;6.40;;;5.13;;
20731;SDS011;10527;52.124;5.196;2024-03-17T06:45:31;7.37;;;5.73;;
20731;SDS011;10527;52.124;5.196;2024-03-17T06:47:58;6.17;;;4.93;;
20731;SDS011;10527;52.124;5.196;2024-03-17T06:50:25;8.20;;;5.47;;
20731;SDS011;10527;52.124;5.196;2024-03-17T06:52:52;6.87;;;5.67;;
20731;SDS011;10527;52.124;5.196;2024-03-17T06:55:18;6.57;;;5.37;;
20731;SDS011;10527;52.124;5.196;2024-03-17T06:57:46;7.87;;;5.37;;
20731;SDS011;10527;52.124;5.196;2024-03-17T07:00:13;7.83;;;6.10;;
20731;SDS011;10527;52.124;5.196;2024-03-17T07:02:41;13.27;;;5.97;;
20731;SDS011;10527;52.124;5.196;2024-03-17T07:05:11;7.53;;;6.07;;
20731;SDS011;10527;52.124;5.196;2024-03-17T07:07:42;8.03;;;6.00;;
20731;SDS011;10527;52.124;5.196;2024-03-17T07:10:09;8.60;;;5.60;;
20731;SDS011;10527;52.124;5.196;2024-03-17T07:12:40;7.77;;;6.53;;
20731;SDS011;10527;52.124;5.196;2024-03-17T07:15:07;9.87;;;6.00;;
20731;SDS011;10527;52.124;5.196;2024-03-17T07:17:34;9.10;;;6.30;;
20731;SDS011;10527;52.124;5.196;2024-03-17T07:20:01;7.50;;;6.33;;
20731;SDS011;10527;52.124;5.196;2024-03-17T07:22:28;8.10;;;5.73;;
20731;SDS011;10527;52.124;5.196;2024-03-17T07:24:55;7.73;;;6.33;;
20731;SDS011;10527;52.124;5.196;2024-03-17T07:27:26;8.77;;;6.23;;
20731;SDS011;10527;52.124;5.196;2024-03-17T07:29:52;8.03;;;6.17;;
20731;SDS011;10527;52.124;5.196;2024-03-17T07:32:19;9.07;;;6.60;;
20731;SDS011;10527;52.124;5.196;2024-03-17T07:34:46;6.93;;;5.97;;
20731;SDS011;10527;52.124;5.196;2024-03-17T07:37:14;7.70;;;6.17;;
20731;SDS011;10527;52.124;5.196;2024-03-17T07:39:41;10.13;;;6.20;;
20731;SDS011;10527;52.124;5.196;2024-03-17T07:42:08;7.03;;;5.97;;
20731;SDS011;10527;52.124;5.196;2024-03-17T07:44:35;8.60;;;6.43;;
20731;SDS011;10527;52.124;5.196;2024-03-17T07:47:01;9.03;;;6.90;;
20731;SDS011;10527;52.124;5.196;2024-03-17T07:49:32;7.73;;;6.20;;
20731;SDS011;10527;52.124;5.196;2024-03-17T07:51:58;9.57;;;6.80;;
20731;SDS011;10527;52.124;5.196;2024-03-17T07:54:25;8.13;;;5.93;;
20731;SDS011;10527;52.124;5.196;2024-03-17T07:56:52;8.67;;;6.20;;
20731;SDS011;10527;52.124;5.196;2024-03-17T07:59:19;7.17;;;5.77;;
20731;SDS011;10527;52.124;5.196;2024-03-17T08:01:45;8.87;;;6.70;;
20731;SDS011;10527;52.124;5.196;2024-03-17T08:04:12;7.47;;;5.93;;
20731;SDS011;10527;52.124;5.196;2024-03-17T08:06:39;7.60;;;5.87;;
20731;SDS011;10527;52.124;5.196;2024-03-17T08:09:08;10.07;;;7.80;;
20731;SDS011;10527;52.124;5.196;2024-03-17T08:11:36;8.47;;;6.27;;
20731;SDS011;10527;52.124;5.196;2024-03-17T08:14:03;7.50;;;6.37;;
20731;SDS011;10527;52.124;5.196;2024-03-17T08:16:31;6.97;;;5.70;;
20731;SDS011;10527;52.124;5.196;2024-03-17T08:18:57;7.77;;;6.40;;
20731;SDS011;10527;52.124;5.196;2024-03-17T08:21:23;10.90;;;6.47;;
20731;SDS011;10527;52.124;5.196;2024-03-17T08:23:51;8.63;;;6.20;;
20731;SDS011;10527;52.124;5.196;2024-03-17T08:26:17;7.83;;;5.40;;
20731;SDS011;10527;52.124;5.196;2024-03-17T08:28:44;9.23;;;6.60;;
20731;SDS011;10527;52.124;5.196;2024-03-17T08:31:12;9.83;;;6.23;;
20731;SDS011;10527;52.124;5.196;2024-03-17T08:33:40;7.53;;;6.50;;
20731;SDS011;10527;52.124;5.196;2024-03-17T08:36:07;14.00;;;7.83;;
20731;SDS011;10527;52.124;5.196;2024-03-17T08:38:34;7.63;;;6.20;;
20731;SDS011;10527;52.124;5.196;2024-03-17T08:41:03;9.73;;;5.50;;
20731;SDS011;10527;52.124;5.196;2024-03-17T08:43:36;9.33;;;6.40;;
20731;SDS011;10527;52.124;5.196;2024-03-17T08:46:03;10.60;;;6.60;;
20731;SDS011;10527;52.124;5.196;2024-03-17T08:48:32;9.43;;;6.23;;
20731;SDS011;10527;52.124;5.196;2024-03-17T08:51:03;8.97;;;5.97;;
20731;SDS011;10527;52.124;5.196;2024-03-17T08:53:31;8.77;;;6.50;;
20731;SDS011;10527;52.124;5.196;2024-03-17T08:55:58;11.70;;;6.87;;
20731;SDS011;10527;52.124;5.196;2024-03-17T08:58:25;8.20;;;6.30;;
20731;SDS011;10527;52.124;5.196;2024-03-17T09:00:52;8.23;;;6.70;;
20731;SDS011;10527;52.124;5.196;2024-03-17T09:03:19;7.33;;;5.93;;
20731;SDS011;10527;52.124;5.196;2024-03-17T09:05:46;6.80;;;5.83;;
20731;SDS011;10527;52.124;5.196;2024-03-17T09:08:18;9.53;;;6.43;;
20731;SDS011;10527;52.124;5.196;2024-03-17T09:10:47;9.73;;;6.00;;
20731;SDS011;10527;52.124;5.196;2024-03-17T09:13:18;7.93;;;6.43;;
20731;SDS011;10527;52.124;5.196;2024-03-17T09:18:25;9.13;;;6.20;;
20731;SDS011;10527;52.124;5.196;2024-03-17T09:23:29;6.97;;;6.07;;
20731;SDS011;10527;52.124;5.196;2024-03-17T09:28:27;8.07;;;5.67;;
20731;SDS011;10527;52.124;5.196;2024-03-17T09:30:55;8.63;;;5.93;;
20731;SDS011;10527;52.124;5.196;2024-03-17T09:33:22;7.17;;;6.47;;
20731;SDS011;10527;52.124;5.196;2024-03-17T09:35:57;8.03;;;6.33;;
20731;SDS011;10527;52.124;5.196;2024-03-17T09:38:27;14.90;;;7.53;;
20731;SDS011;10527;52.124;5.196;2024-03-17T09:40:54;6.33;;;5.73;;
20731;SDS011;10527;52.124;5.196;2024-03-17T09:43:32;8.17;;;5.60;;
20731;SDS011;10527;52.124;5.196;2024-03-17T09:46:03;9.40;;;6.03;;
20731;SDS011;10527;52.124;5.196;2024-03-17T09:48:30;6.97;;;5.80;;
20731;SDS011;10527;52.124;5.196;2024-03-17T09:53:32;6.32;;;5.32;;
20731;SDS011;10527;52.124;5.196;2024-03-17T09:56:03;7.65;;;5.72;;
20731;SDS011;10527;52.124;5.196;2024-03-17T09:58:36;7.43;;;5.93;;
20731;SDS011;10527;52.124;5.196;2024-03-17T10:01:03;7.97;;;6.43;;
20731;SDS011;10527;52.124;5.196;2024-03-17T10:06:14;5.77;;;5.07;;
20731;SDS011;10527;52.124;5.196;2024-03-17T10:11:09;8.48;;;5.57;;
20731;SDS011;10527;52.124;5.196;2024-03-17T10:13:36;8.70;;;5.80;;
20731;SDS011;10527;52.124;5.196;2024-03-17T10:16:03;8.82;;;5.60;;
20731;SDS011;10527;52.124;5.196;2024-03-17T10:18:29;6.30;;;5.50;;
20731;SDS011;10527;52.124;5.196;2024-03-17T10:20:56;7.47;;;5.35;;
20731;SDS011;10527;52.124;5.196;2024-03-17T10:23:24;8.10;;;5.93;;
20731;SDS011;10527;52.124;5.196;2024-03-17T10:25:52;6.15;;;5.40;;
20731;SDS011;10527;52.124;5.196;2024-03-17T10:28:19;7.43;;;5.55;;
20731;SDS011;10527;52.124;5.196;2024-03-17T10:30:59;7.32;;;5.60;;
20731;SDS011;10527;52.124;5.196;2024-03-17T10:33:27;7.30;;;4.95;;
20731;SDS011;10527;52.124;5.196;2024-03-17T10:35:58;7.00;;;5.07;;
20731;SDS011;10527;52.124;5.196;2024-03-17T10:38:31;7.35;;;4.95;;
20731;SDS011;10527;52.124;5.196;2024-03-17T10:41:00;6.82;;;5.28;;
20731;SDS011;10527;52.124;5.196;2024-03-17T10:43:27;7.15;;;4.93;;
20731;SDS011;10527;52.124;5.196;2024-03-17T10:45:53;7.57;;;4.90;;
20731;SDS011;10527;52.124;5.196;2024-03-17T10:48:21;7.13;;;4.65;;
20731;SDS011;10527;52.124;5.196;2024-03-17T10:51:00;6.78;;;4.47;;
20731;SDS011;10527;52.124;5.196;2024-03-17T10:53:28;6.95;;;4.88;;
20731;SDS011;10527;52.124;5.196;2024-03-17T10:56:06;6.55;;;5.25;;
20731;SDS011;10527;52.124;5.196;2024-03-17T10:58:35;7.07;;;4.30;;
20731;SDS011;10527;52.124;5.196;2024-03-17T11:01:04;7.22;;;4.55;;
20731;SDS011;10527;52.124;5.196;2024-03-17T11:03:33;5.85;;;4.72;;
20731;SDS011;10527;52.124;5.196;2024-03-17T11:06:03;6.07;;;5.10;;
20731;SDS011;10527;52.124;5.196;2024-03-17T11:08:31;6.88;;;4.78;;
20731;SDS011;10527;52.124;5.196;2024-03-17T11:10:59;5.40;;;4.70;;
20731;SDS011;10527;52.124;5.196;2024-03-17T11:13:27;5.93;;;5.32;;
20731;SDS011;10527;52.124;5.196;2024-03-17T11:15:54;5.05;;;4.25;;
20731;SDS011;10527;52.124;5.196;2024-03-17T11:21:00;5.15;;;4.47;;
20731;SDS011;10527;52.124;5.196;2024-03-17T11:23:36;6.90;;;4.47;;
20731;SDS011;10527;52.124;5.196;2024-03-17T11:26:04;5.65;;;4.78;;
20731;SDS011;10527;52.124;5.196;2024-03-17T11:34:29;5.63;;;4.60;;
20731;SDS011;10527;52.124;5.196;2024-03-17T11:36:58;7.28;;;4.72;;
20731;SDS011;10527;52.124;5.196;2024-03-17T11:42:14;6.47;;;4.90;;
20731;SDS011;10527;52.124;5.196;2024-03-17T11:44:42;6.10;;;5.18;;
20731;SDS011;10527;52.124;5.196;2024-03-17T11:47:18;8.55;;;5.93;;
20731;SDS011;10527;52.124;5.196;2024-03-17T11:49:45;7.18;;;5.45;;
20731;SDS011;10527;52.124;5.196;2024-03-17T11:52:15;8.55;;;5.55;;
20731;SDS011;10527;52.124;5.196;2024-03-17T11:54:42;7.63;;;5.72;;
20731;SDS011;10527;52.124;5.196;2024-03-17T11:57:14;5.75;;;4.72;;
20731;SDS011;10527;52.124;5.196;2024-03-17T11:59:48;7.25;;;5.38;;
20731;SDS011;10527;52.124;5.196;2024-03-17T12:04:45;6.78;;;5.45;;
20731;SDS011;10527;52.124;5.196;2024-03-17T12:07:14;6.65;;;4.95;;
20731;SDS011;10527;52.124;5.196;2024-03-17T12:09:42;7.53;;;5.28;;
20731;SDS011;10527;52.124;5.196;2024-03-17T12:12:18;6.05;;;5.38;;
20731;SDS011;10527;52.124;5.196;2024-03-17T12:14:46;7.72;;;6.05;;
20731;SDS011;10527;52.124;5.196;2024-03-17T12:17:14;8.02;;;5.38;;
20731;SDS011;10527;52.124;5.196;2024-03-17T12:19:48;9.20;;;5.50;;
20731;SDS011;10527;52.124;5.196;2024-03-17T12:22:17;8.90;;;5.60;;
20731;SDS011;10527;52.124;5.196;2024-03-17T12:24:48;8.48;;;5.45;;
20731;SDS011;10527;52.124;5.196;2024-03-17T12:27:16;8.40;;;5.63;;
20731;SDS011;10527;52.124;5.196;2024-03-17T12:29:44;11.98;;;8.95;;
20731;SDS011;10527;52.124;5.196;2024-03-17T12:32:22;7.85;;;6.88;;
20731;SDS011;10527;52.124;5.196;2024-03-17T12:34:50;7.50;;;5.85;;
20731;SDS011;10527;52.124;5.196;2024-03-17T12:37:20;6.50;;;5.35;;
20731;SDS011;10527;52.124;5.196;2024-03-17T12:39:47;7.25;;;6.00;;
20731;SDS011;10527;52.124;5.196;2024-03-17T12:42:15;7.88;;;5.82;;
20731;SDS011;10527;52.124;5.196;2024-03-17T12:44:48;8.00;;;5.63;;
20731;SDS011;10527;52.124;5.196;2024-03-17T12:47:30;10.30;;;6.22;;
20731;SDS011;10527;52.124;5.196;2024-03-17T12:49:58;6.43;;;5.28;;
20731;SDS011;10527;52.124;5.196;2024-03-17T12:52:31;9.63;;;5.78;;
20731;SDS011;10527;52.124;5.196;2024-03-17T13:00:56;5.90;;;4.88;;
20731;SDS011;10527;52.124;5.196;2024-03-17T13:03:24;6.95;;;6.05;;
20731;SDS011;10527;52.124;5.196;2024-03-17T13:05:52;7.47;;;6.05;;
20731;SDS011;10527;52.124;5.196;2024-03-17T13:08:18;7.07;;;5.45;;
20731;SDS011;10527;52.124;5.196;2024-03-17T13:10:46;7.70;;;5.72;;
20731;SDS011;10527;52.124;5.196;2024-03-17T13:13:12;7.43;;;5.57;;
20731;SDS011;10527;52.124;5.196;2024-03-17T13:15:42;8.27;;;5.95;;
20731;SDS011;10527;52.124;5.196;2024-03-17T13:18:09;6.72;;;5.55;;
20731;SDS011;10527;52.124;5.196;2024-03-17T13:20:40;8.32;;;6.57;;
20731;SDS011;10527;52.124;5.196;2024-03-17T13:23:07;6.85;;;5.72;;
20731;SDS011;10527;52.124;5.196;2024-03-17T13:25:33;10.82;;;5.25;;
20731;SDS011;10527;52.124;5.196;2024-03-17T13:28:02;7.20;;;6.30;;
20731;SDS011;10527;52.124;5.196;2024-03-17T13:30:29;8.77;;;5.63;;
20731;SDS011;10527;52.124;5.196;2024-03-17T13:32:59;9.02;;;5.88;;
20731;SDS011;10527;52.124;5.196;2024-03-17T13:35:26;6.53;;;5.72;;
20731;SDS011;10527;52.124;5.196;2024-03-17T13:37:57;7.13;;;5.80;;
20731;SDS011;10527;52.124;5.196;2024-03-17T13:40:27;7.03;;;5.35;;
20731;SDS011;10527;52.124;5.196;2024-03-17T13:42:55;6.50;;;5.28;;
20731;SDS011;10527;52.124;5.196;2024-03-17T13:45:26;8.15;;;5.88;;
20731;SDS011;10527;52.124;5.196;2024-03-17T13:48:00;6.97;;;5.70;;
20731;SDS011;10527;52.124;5.196;2024-03-17T13:50:31;7.22;;;5.30;;
20731;SDS011;10527;52.124;5.196;2024-03-17T13:52:59;8.13;;;6.15;;
20731;SDS011;10527;52.124;5.196;2024-03-17T13:55:28;7.47;;;5.60;;
20731;SDS011;10527;52.124;5.196;2024-03-17T13:57:55;7.35;;;5.00;;
20731;SDS011;10527;52.124;5.196;2024-03-17T14:00:24;7.18;;;5.55;;
20731;SDS011;10527;52.124;5.196;2024-03-17T14:02:52;6.03;;;5.43;;
20731;SDS011;10527;52.124;5.196;2024-03-17T14:05:20;8.50;;;5.70;;
20731;SDS011;10527;52.124;5.196;2024-03-17T14:07:48;8.18;;;5.47;;
20731;SDS011;10527;52.124;5.196;2024-03-17T14:10:18;6.82;;;5.32;;
20731;SDS011;10527;52.124;5.196;2024-03-17T14:12:45;6.15;;;5.53;;
20731;SDS011;10527;52.124;5.196;2024-03-17T14:15:13;11.15;;;5.97;;
20731;SDS011;10527;52.124;5.196;2024-03-17T14:17:41;7.05;;;5.97;;
20731;SDS011;10527;52.124;5.196;2024-03-17T14:20:09;7.03;;;5.38;;
20731;SDS011;10527;52.124;5.196;2024-03-17T14:22:36;7.53;;;5.18;;
20731;SDS011;10527;52.124;5.196;2024-03-17T14:25:04;8.30;;;4.88;;
20731;SDS011;10527;52.124;5.196;2024-03-17T14:27:31;7.03;;;5.28;;
20731;SDS011;10527;52.124;5.196;2024-03-17T14:30:00;6.38;;;5.50;;
20731;SDS011;10527;52.124;5.196;2024-03-17T14:32:26;8.23;;;5.40;;
20731;SDS011;10527;52.124;5.196;2024-03-17T14:34:53;6.35;;;4.88;;
20731;SDS011;10527;52.124;5.196;2024-03-17T14:37:20;6.18;;;5.05;;
20731;SDS011;10527;52.124;5.196;2024-03-17T14:39:48;6.82;;;5.13;;
20731;SDS011;10527;52.124;5.196;2024-03-17T14:42:16;5.78;;;5.03;;
20731;SDS011;10527;52.124;5.196;2024-03-17T14:44:42;8.80;;;5.07;;
20731;SDS011;10527;52.124;5.196;2024-03-17T14:47:09;8.70;;;5.80;;
20731;SDS011;10527;52.124;5.196;2024-03-17T14:49:37;6.22;;;4.95;;
20731;SDS011;10527;52.124;5.196;2024-03-17T14:52:03;6.95;;;4.97;;
20731;SDS011;10527;52.124;5.196;2024-03-17T14:54:31;6.03;;;4.85;;
20731;SDS011;10527;52.124;5.196;2024-03-17T14:56:57;7.43;;;5.43;;
20731;SDS011;10527;52.124;5.196;2024-03-17T14:59:24;5.50;;;4.43;;
20731;SDS011;10527;52.124;5.196;2024-03-17T15:01:51;7.32;;;5.28;;
20731;SDS011;10527;52.124;5.196;2024-03-17T15:04:17;5.43;;;4.35;;
20731;SDS011;10527;52.124;5.196;2024-03-17T15:06:44;5.72;;;5.03;;
20731;SDS011;10527;52.124;5.196;2024-03-17T15:09:11;6.88;;;5.85;;
20731;SDS011;10527;52.124;5.196;2024-03-17T15:11:44;7.22;;;5.53;;
20731;SDS011;10527;52.124;5.196;2024-03-17T15:14:11;5.40;;;4.68;;
20731;SDS011;10527;52.124;5.196;2024-03-17T15:16:38;6.55;;;5.05;;
20731;SDS011;10527;52.124;5.196;2024-03-17T15:19:05;5.70;;;5.13;;
20731;SDS011;10527;52.124;5.196;2024-03-17T15:21:32;7.72;;;5.03;;
20731;SDS011;10527;52.124;5.196;2024-03-17T15:23:59;6.45;;;5.00;;
20731;SDS011;10527;52.124;5.196;2024-03-17T15:26:28;5.53;;;4.70;;
20731;SDS011;10527;52.124;5.196;2024-03-17T15:28:55;6.18;;;4.90;;
20731;SDS011;10527;52.124;5.196;2024-03-17T15:31:23;6.85;;;4.80;;